METAR - Iceland

Last updated 16.07.2019 - at. 18:53

SIGMET for the last six hours

No SIGMET messages last 6 hours.

METAR from the last three hours

AerodromeTimeMessage
BIAR2019-07-16 18.00METAR BIAR 161800Z 36003KT 330V040 9999 -RA FEW005 SCT033 OVC055 14/12 Q1004 RMK WIND VADLAHEIDI 12011KT
BIAR2019-07-16 17.00METAR BIAR 161700Z 01007KT 9999 -RA FEW005 SCT033 OVC055 14/12 Q1004 RMK WIND VADLAHEIDI 12011KT
BIAR2019-07-16 16.00METAR BIAR 161600Z 36005KT 9999 -RA FEW005 SCT033 OVC067 14/13 Q1004 RMK WIND VADLAHEIDI 12011KT
BIBD2019-07-16 17.39METAR BIBD 161739Z 10003KT 9999 SHRA SCT027 BKN040 OVC050 13/12 Q1003
BIEG2019-07-16 18.00METAR BIEG 161800Z 18009KT 9999 FEW015 BKN028 OVC050 13/10 Q1006 RMK WIND GAGNHEIDI 12017KT
BIEG2019-07-16 17.00METAR BIEG 161700Z 17009KT 9000 -RA FEW015 BKN028 OVC050 13/10 Q1007 RMK WIND GAGNHEIDI 12023KT
BIEG2019-07-16 16.00METAR BIEG 161600Z 22006KT 9000 -RA BKN020 OVC030 13/10 Q1007 RMK WIND GAGNHEIDI 11021KT
BIGR2019-07-16 16.00METAR BIGR 161600Z 09011KT 9999 FEW066 BKN086 12/10 Q1005
BIHU2019-07-16 17.00METAR BIHU 161700Z 17006KT 9999 OVC090 17/17 Q1004
BIIS2019-07-16 18.00METAR BIIS 161800Z 05008KT 9999 FEW014 SCT035 BKN050 12/10 Q1003
BIIS2019-07-16 17.00METAR BIIS 161700Z 05009KT 9999 FEW010 SCT035 BKN050 13/11 Q1004
BIIS2019-07-16 16.00METAR BIIS 161600Z 00000KT 9999 FEW008 SCT030 OVC050 13/11 Q1004
BIKF2019-07-16 18.30METAR BIKF 161830Z 02005KT 350V060 9999 RA FEW004 BKN006 OVC012 13/13 Q1003
BIKF2019-07-16 18.00METAR BIKF 161800Z 03005KT 9999 -RA BKN005 OVC015 13/13 Q1003
BIKF2019-07-16 17.30METAR BIKF 161730Z 05006KT 9999 RA SCT004 BKN010 OVC018 13/13 Q1003
BIKF2019-07-16 17.00METAR BIKF 161700Z 05009KT 8000 RA BR FEW004 SCT014 BKN018 13/13 Q1003
BIKF2019-07-16 16.30METAR BIKF 161630Z 04004KT 360V070 9999 VCSH FEW008 SCT024 BKN032 15/13 Q1003
BIKF2019-07-16 16.00METAR BIKF 161600Z 36008KT 9999 FEW002 SCT022 BKN038 15/12 Q1003
BIRK2019-07-16 18.35SPECI BIRK 161835Z 30004KT 5000 -RADZ BR FEW001 BKN022 OVC048 13/11 Q1003
BIRK2019-07-16 18.00METAR BIRK 161800Z 31004KT 2500 -RA BR FEW015 BKN023 OVC027 13/11 Q1003
BIRK2019-07-16 17.00METAR BIRK 161700Z 33006KT 2900 -RA BR FEW008 SCT023 OVC029 13/11 Q1003
BIRK2019-07-16 16.00METAR BIRK 161600Z 35005KT 2500 -RA BR FEW003 SCT019 OVC038 14/12 Q1004
BIVM2019-07-16 17.22METAR BIVM 161722Z 10014KT 9999 FEW010 SCT040 13/13 Q1002
BIVM2019-07-16 16.24METAR BIVM 161624Z 10018KT 9999 FEW002 SCT010 SCT040 13/13 Q1003
BIVM2019-07-16 16.00METAR BIVM 161600Z 10016KT 9999 SCT002 BKN010 13/13 Q1003





Other related web sites


This website is built with Eplica CMS